createdAt,value
2023-01-07T00:02:58.720Z,101072.06
2023-01-07T00:06:01.027Z,101068.25
2023-01-07T00:09:03.634Z,101065.88
2023-01-07T00:12:05.655Z,101068.28
2023-01-07T00:15:07.856Z,101074.28
2023-01-07T00:18:09.778Z,101070.91
2023-01-07T00:21:12.932Z,101076.00
2023-01-07T00:24:16.262Z,101085.06
2023-01-07T00:27:19.411Z,101078.78
2023-01-07T00:30:21.248Z,101081.03
2023-01-07T00:33:25.270Z,101079.72
2023-01-07T00:36:28.269Z,101088.75
2023-01-07T00:39:30.205Z,101090.56
2023-01-07T00:42:50.828Z,101086.66
2023-01-07T00:45:52.824Z,101088.19
2023-01-07T00:48:54.668Z,101083.41
2023-01-07T00:51:56.527Z,101079.12
2023-01-07T00:54:59.220Z,101085.94
2023-01-07T00:58:01.323Z,101089.00
2023-01-07T01:01:03.374Z,101092.75
2023-01-07T01:04:06.462Z,101096.62
2023-01-07T01:07:08.373Z,101091.88
2023-01-07T01:10:11.758Z,101098.81
2023-01-07T01:13:15.455Z,101092.59
2023-01-07T01:16:18.704Z,101086.72
2023-01-07T01:19:20.574Z,101081.25
2023-01-07T01:22:22.521Z,101092.62
2023-01-07T01:25:24.322Z,101096.81
2023-01-07T01:28:26.315Z,101083.25
2023-01-07T01:31:28.343Z,101084.16
2023-01-07T01:34:30.230Z,101076.50
2023-01-07T01:37:32.070Z,101078.03
2023-01-07T01:40:33.989Z,101083.84
2023-01-07T01:43:37.494Z,101087.91
2023-01-07T01:46:40.208Z,101087.78
2023-01-07T01:49:44.978Z,101083.66
2023-01-07T01:52:55.470Z,101092.03
2023-01-07T01:55:59.013Z,101081.84
2023-01-07T01:59:01.851Z,101071.72
2023-01-07T02:02:03.836Z,101074.91
2023-01-07T02:05:06.133Z,101061.97
2023-01-07T02:08:08.398Z,101067.72
2023-01-07T02:11:10.344Z,101063.31
2023-01-07T02:14:17.394Z,101061.06
2023-01-07T02:17:19.213Z,101052.78
2023-01-07T02:20:27.488Z,101046.56
2023-01-07T02:23:32.462Z,101051.84
2023-01-07T02:26:53.209Z,101039.44
2023-01-07T02:30:07.170Z,101036.41
2023-01-07T02:33:10.495Z,101034.72
2023-01-07T02:36:18.542Z,101033.97
2023-01-07T02:39:26.284Z,101043.37
2023-01-07T02:42:36.110Z,101038.88
2023-01-07T02:45:48.366Z,101032.12
2023-01-07T02:48:50.429Z,101045.09
2023-01-07T02:51:52.333Z,101044.94
2023-01-07T02:55:05.421Z,101050.41
2023-01-07T02:58:25.984Z,101051.38
2023-01-07T03:01:37.981Z,101045.16
2023-01-07T03:04:48.799Z,101048.38
2023-01-07T03:07:50.640Z,101048.50
2023-01-07T03:10:59.784Z,101052.50
2023-01-07T03:14:18.835Z,101033.34
2023-01-07T03:17:21.391Z,101047.97
2023-01-07T03:20:23.600Z,101038.25
2023-01-07T03:23:26.172Z,101036.00
2023-01-07T03:26:32.262Z,101036.56
2023-01-07T03:29:35.796Z,101033.87
2023-01-07T03:32:39.236Z,101033.59
2023-01-07T03:35:41.761Z,101025.72
2023-01-07T03:38:43.622Z,101032.91
2023-01-07T03:42:04.192Z,101036.09
2023-01-07T03:45:13.398Z,101035.44
2023-01-07T03:48:15.258Z,101034.94
2023-01-07T03:51:17.179Z,101036.87
2023-01-07T03:54:19.026Z,101024.41
2023-01-07T03:57:20.925Z,101025.88
2023-01-07T04:00:22.844Z,101029.38
2023-01-07T04:03:24.885Z,101036.38
2023-01-07T04:06:26.974Z,101028.81
2023-01-07T04:09:28.798Z,101034.63
2023-01-07T04:12:30.710Z,101032.97
2023-01-07T04:15:32.603Z,101030.28
2023-01-07T04:18:34.468Z,101032.78
2023-01-07T04:21:36.492Z,101030.00
2023-01-07T04:24:38.392Z,101023.25
2023-01-07T04:27:40.328Z,101029.19
2023-01-07T04:30:42.293Z,101040.25
2023-01-07T04:33:44.199Z,101027.59
2023-01-07T04:36:46.121Z,101034.22
2023-01-07T04:39:47.979Z,101037.25
2023-01-07T04:42:49.835Z,101036.31
2023-01-07T04:45:51.726Z,101047.25
2023-01-07T04:48:53.600Z,101034.53
2023-01-07T04:51:55.456Z,101032.41
2023-01-07T04:54:57.330Z,101033.25
2023-01-07T04:57:59.151Z,101041.78
2023-01-07T05:01:03.783Z,101030.50
2023-01-07T05:04:05.797Z,101040.66
2023-01-07T05:07:07.745Z,101037.84
2023-01-07T05:10:10.197Z,101042.81
2023-01-07T05:13:16.353Z,101046.00
2023-01-07T05:16:18.317Z,101048.34
2023-01-07T05:19:21.823Z,101046.31
2023-01-07T05:22:23.817Z,101046.53
2023-01-07T05:25:25.795Z,101056.19
2023-01-07T05:28:27.692Z,101056.91
2023-01-07T05:31:29.582Z,101047.72
2023-01-07T05:34:31.488Z,101044.88
2023-01-07T05:37:33.913Z,101047.59
2023-01-07T05:40:35.743Z,101049.25
2023-01-07T05:43:37.680Z,101042.34
2023-01-07T05:46:39.583Z,101043.06
2023-01-07T05:49:41.538Z,101049.06
2023-01-07T05:52:43.387Z,101043.63
2023-01-07T05:55:45.347Z,101046.09
2023-01-07T05:58:47.264Z,101052.19
2023-01-07T06:01:49.288Z,101049.66
2023-01-07T06:04:51.233Z,101053.25
2023-01-07T06:07:53.150Z,101050.63
2023-01-07T06:10:55.190Z,101042.00
2023-01-07T06:13:57.053Z,101046.56
2023-01-07T06:16:59.637Z,101052.47
2023-01-07T06:20:01.525Z,101064.06
2023-01-07T06:23:05.017Z,101051.00
2023-01-07T06:26:07.071Z,101050.66
2023-01-07T06:29:10.015Z,101046.78
2023-01-07T06:32:11.953Z,101044.59
2023-01-07T06:35:14.027Z,101046.44
2023-01-07T06:38:15.996Z,101044.28
2023-01-07T06:41:18.003Z,101044.50
2023-01-07T06:44:19.944Z,101034.47
2023-01-07T06:47:21.831Z,101045.84
2023-01-07T06:50:23.783Z,101046.81
2023-01-07T06:53:25.633Z,101045.66
2023-01-07T06:56:27.563Z,101055.53
2023-01-07T06:59:29.534Z,101052.69
2023-01-07T07:02:31.723Z,101063.34
2023-01-07T07:05:34.116Z,101068.69
2023-01-07T07:08:36.057Z,101070.25
2023-01-07T07:11:40.244Z,101068.75
2023-01-07T07:14:42.097Z,101075.41
2023-01-07T07:17:44.078Z,101074.19
2023-01-07T07:20:46.349Z,101064.66
2023-01-07T07:23:48.395Z,101072.28
2023-01-07T07:26:50.303Z,101076.66
2023-01-07T07:29:52.224Z,101065.66
2023-01-07T07:32:54.102Z,101076.78
2023-01-07T07:35:56.348Z,101067.34
2023-01-07T07:38:58.249Z,101081.81
2023-01-07T07:42:02.439Z,101082.06
2023-01-07T07:45:05.430Z,101082.62
2023-01-07T07:48:07.956Z,101093.25
2023-01-07T07:51:09.924Z,101073.34
2023-01-07T07:54:11.800Z,101093.66
2023-01-07T07:57:13.696Z,101096.28
2023-01-07T08:00:16.394Z,101096.38
2023-01-07T08:03:18.452Z,101093.69
2023-01-07T08:06:20.366Z,101084.03
2023-01-07T08:09:22.228Z,101090.13
2023-01-07T08:12:24.286Z,101077.87
2023-01-07T08:15:26.122Z,101083.19
2023-01-07T08:18:28.063Z,101077.34
2023-01-07T08:21:29.885Z,101088.00
2023-01-07T08:24:31.836Z,101080.09
2023-01-07T08:27:33.724Z,101072.31
2023-01-07T08:30:35.844Z,101074.00
2023-01-07T08:33:38.695Z,101088.78
2023-01-07T08:36:40.555Z,101063.87
2023-01-07T08:39:42.675Z,101062.97
2023-01-07T08:42:44.563Z,101068.22
2023-01-07T08:45:50.022Z,101065.00
2023-01-07T08:48:54.412Z,101073.72
2023-01-07T08:51:56.341Z,101053.53
2023-01-07T08:54:58.288Z,101060.50
2023-01-07T08:58:00.289Z,101056.19
2023-01-07T09:01:03.225Z,101048.06
2023-01-07T09:04:05.313Z,101045.72
2023-01-07T09:07:07.434Z,101051.91
2023-01-07T09:10:09.973Z,101059.53
2023-01-07T09:13:12.025Z,101057.87
2023-01-07T09:16:14.434Z,101053.41
2023-01-07T09:19:16.381Z,101053.69
2023-01-07T09:22:18.460Z,101055.13
2023-01-07T09:25:20.359Z,101063.97
2023-01-07T09:28:22.227Z,101059.84
2023-01-07T09:31:24.279Z,101056.34
2023-01-07T09:34:26.382Z,101055.19
2023-01-07T09:37:28.444Z,101049.38
2023-01-07T09:40:41.747Z,101042.44
2023-01-07T09:44:00.971Z,101038.66
2023-01-07T09:47:03.788Z,101035.75
2023-01-07T09:50:09.944Z,101027.34
2023-01-07T09:53:26.835Z,101038.38
2023-01-07T09:56:35.311Z,101026.03
2023-01-07T09:59:37.292Z,101023.84
2023-01-07T10:02:57.863Z,101015.22
2023-01-07T10:06:11.098Z,101019.87
2023-01-07T10:09:19.952Z,101018.09
2023-01-07T10:12:21.916Z,101014.56
2023-01-07T10:15:23.891Z,101010.63
2023-01-07T10:18:33.262Z,101004.56
2023-01-07T10:21:38.317Z,101004.41
2023-01-07T10:24:41.772Z,101003.81
2023-01-07T10:27:44.038Z,100997.13
2023-01-07T10:30:46.677Z,100985.72
2023-01-07T10:33:48.829Z,100993.16
2023-01-07T10:37:00.432Z,100987.34
2023-01-07T10:40:17.607Z,100986.41
2023-01-07T10:43:28.628Z,100983.13
2023-01-07T10:46:34.008Z,100975.47
2023-01-07T10:49:42.083Z,100983.84
2023-01-07T10:52:44.033Z,100976.91
2023-01-07T10:55:53.646Z,100964.94
2023-01-07T10:58:55.705Z,100958.94
2023-01-07T11:01:58.623Z,100954.16
2023-01-07T11:05:00.745Z,100954.94
2023-01-07T11:08:02.671Z,100943.44
2023-01-07T11:11:05.074Z,100944.72
2023-01-07T11:14:10.055Z,100936.19
2023-01-07T11:17:14.951Z,100933.22
2023-01-07T11:20:36.701Z,100931.75
2023-01-07T11:23:43.934Z,100920.75
2023-01-07T11:26:46.090Z,100914.38
2023-01-07T11:29:59.438Z,100909.53
2023-01-07T11:33:05.436Z,100913.03
2023-01-07T11:36:07.921Z,100899.25
2023-01-07T11:39:11.181Z,100899.88
2023-01-07T11:42:35.959Z,100893.34
2023-01-07T11:45:40.802Z,100884.78
2023-01-07T11:48:52.753Z,100885.88
2023-01-07T11:51:54.700Z,100880.84
2023-01-07T11:54:56.569Z,100883.09
2023-01-07T11:58:29.380Z,100868.38
2023-01-07T12:01:23.760Z,100863.56
2023-01-07T12:04:28.802Z,100865.19
2023-01-07T12:07:30.778Z,100870.91
2023-01-07T12:10:36.801Z,100852.00
2023-01-07T12:13:39.858Z,100853.25
2023-01-07T12:16:41.816Z,100840.31
2023-01-07T12:19:46.735Z,100834.69
2023-01-07T12:23:00.889Z,100835.81
2023-01-07T12:26:09.102Z,100826.28
2023-01-07T12:29:18.158Z,100823.87
2023-01-07T12:32:20.165Z,100818.25
2023-01-07T12:35:26.165Z,100825.97
2023-01-07T12:38:34.011Z,100816.91
2023-01-07T12:41:43.669Z,100811.72
2023-01-07T12:44:52.657Z,100815.38
2023-01-07T12:47:55.141Z,100808.34
2023-01-07T12:50:57.481Z,100815.28
2023-01-07T12:54:11.491Z,100812.66
2023-01-07T12:57:18.053Z,100806.69
2023-01-07T13:00:24.827Z,100800.44
2023-01-07T13:03:47.099Z,100795.50
2023-01-07T13:06:50.495Z,100796.34
2023-01-07T13:09:57.196Z,100792.31
2023-01-07T13:13:01.804Z,100796.28
2023-01-07T13:16:11.385Z,100795.50
2023-01-07T13:19:13.271Z,100793.94
2023-01-07T13:22:20.989Z,100794.97
2023-01-07T13:25:30.030Z,100804.56
2023-01-07T13:28:41.184Z,100800.63
2023-01-07T13:31:49.239Z,100792.84
2023-01-07T13:35:10.135Z,100794.09
2023-01-07T13:38:12.030Z,100811.28
2023-01-07T13:41:17.792Z,100798.31
2023-01-07T13:44:29.063Z,100797.22
2023-01-07T13:47:40.070Z,100793.06
2023-01-07T13:50:42.662Z,100793.37
2023-01-07T13:53:46.729Z,100792.81
2023-01-07T13:56:48.807Z,100803.97
2023-01-07T13:59:52.808Z,100811.06
2023-01-07T14:02:58.128Z,100819.66
2023-01-07T14:06:18.796Z,100822.75
2023-01-07T14:09:22.001Z,100820.25
2023-01-07T14:12:29.340Z,100819.09
2023-01-07T14:15:51.671Z,100823.44
2023-01-07T14:18:59.610Z,100822.03
2023-01-07T14:22:05.300Z,100826.97
2023-01-07T14:25:10.200Z,100832.22
2023-01-07T14:28:24.488Z,100831.69
2023-01-07T14:31:27.626Z,100829.09
2023-01-07T14:34:29.641Z,100827.69
2023-01-07T14:37:35.744Z,100827.97
2023-01-07T14:40:37.747Z,100830.91
2023-01-07T14:43:48.461Z,100829.41
2023-01-07T14:46:50.487Z,100823.00
2023-01-07T14:50:15.720Z,100817.16
2023-01-07T14:53:36.266Z,100836.03
2023-01-07T14:56:47.227Z,100826.25
2023-01-07T14:59:58.260Z,100838.44
2023-01-07T15:03:03.710Z,100830.37
2023-01-07T15:06:05.603Z,100838.25
2023-01-07T15:09:47.357Z,100837.69
2023-01-07T15:13:13.696Z,100843.75
2023-01-07T15:16:16.158Z,100830.06
2023-01-07T15:19:18.089Z,100838.62
2023-01-07T15:22:35.436Z,100831.53
2023-01-07T15:25:50.852Z,100833.59
2023-01-07T15:29:18.924Z,100835.69
2023-01-07T15:32:20.825Z,100836.69
2023-01-07T15:35:26.044Z,100840.91
2023-01-07T15:38:29.334Z,100842.41
2023-01-07T15:41:38.364Z,100842.44
2023-01-07T15:44:41.263Z,100848.00
2023-01-07T15:47:43.513Z,100850.44
2023-01-07T15:50:45.623Z,100850.47
2023-01-07T15:53:54.960Z,100846.59
2023-01-07T15:57:05.421Z,100847.44
2023-01-07T16:00:08.170Z,100851.84
2023-01-07T16:03:14.717Z,100859.47
2023-01-07T16:06:34.434Z,100866.50
2023-01-07T16:09:36.390Z,100861.16
2023-01-07T16:12:38.562Z,100870.59
2023-01-07T16:15:41.449Z,100877.87
2023-01-07T16:18:48.018Z,100871.16
2023-01-07T16:21:53.620Z,100855.69
2023-01-07T16:24:55.530Z,100863.28
2023-01-07T16:27:57.418Z,100865.78
2023-01-07T16:30:59.443Z,100869.22
2023-01-07T16:34:02.209Z,100864.31
2023-01-07T16:37:05.673Z,100878.97
2023-01-07T16:40:12.342Z,100881.50
2023-01-07T16:43:29.541Z,100882.16
2023-01-07T16:46:36.113Z,100882.31
2023-01-07T16:49:37.947Z,100888.41
2023-01-07T16:52:49.605Z,100891.47
2023-01-07T16:56:06.821Z,100897.28
2023-01-07T16:59:12.400Z,100899.53
2023-01-07T17:02:20.442Z,100899.28
2023-01-07T17:05:22.283Z,100895.94
2023-01-07T17:08:24.221Z,100894.41
2023-01-07T17:11:29.123Z,100887.53
2023-01-07T17:14:34.292Z,100894.84
2023-01-07T17:17:36.274Z,100897.22
2023-01-07T17:20:50.226Z,100899.75
2023-01-07T17:23:52.137Z,100904.75
2023-01-07T17:26:54.910Z,100893.19
2023-01-07T17:29:56.726Z,100900.53
2023-01-07T17:32:58.710Z,100907.25
2023-01-07T17:36:00.564Z,100912.47
2023-01-07T17:39:02.642Z,100899.56
2023-01-07T17:42:23.020Z,100898.97
2023-01-07T17:45:25.023Z,100888.47
2023-01-07T17:48:27.297Z,100906.06
2023-01-07T17:51:29.396Z,100915.34
2023-01-07T17:54:32.224Z,100910.09
2023-01-07T17:57:34.079Z,100908.78
2023-01-07T18:00:36.817Z,100914.87
2023-01-07T18:03:38.794Z,100916.69
2023-01-07T18:06:42.001Z,100914.78
2023-01-07T18:09:44.588Z,100903.44
2023-01-07T18:12:46.788Z,100909.56
2023-01-07T18:15:48.814Z,100913.53
2023-01-07T18:18:50.643Z,100915.84
2023-01-07T18:21:52.488Z,100898.06
2023-01-07T18:24:56.534Z,100904.84
2023-01-07T18:27:58.420Z,100902.91
2023-01-07T18:31:00.286Z,100912.34
2023-01-07T18:34:02.132Z,100913.78
2023-01-07T18:37:04.070Z,100911.47
2023-01-07T18:40:06.483Z,100918.63
2023-01-07T18:43:11.283Z,100922.34
2023-01-07T18:46:13.430Z,100916.28
2023-01-07T18:49:15.405Z,100919.44
2023-01-07T18:52:17.362Z,100918.47
2023-01-07T18:55:19.461Z,100918.94
2023-01-07T18:58:22.925Z,100914.56
2023-01-07T19:01:24.952Z,100916.59
2023-01-07T19:04:27.096Z,100905.50
2023-01-07T19:07:29.468Z,100907.66
2023-01-07T19:10:31.378Z,100907.28
2023-01-07T19:13:33.250Z,100905.31
2023-01-07T19:16:36.266Z,100896.34
2023-01-07T19:19:47.948Z,100901.53
2023-01-07T19:22:50.759Z,100903.75
2023-01-07T19:25:56.441Z,100895.44
2023-01-07T19:28:58.337Z,100904.53
2023-01-07T19:32:00.311Z,100899.91
2023-01-07T19:35:02.250Z,100900.81
2023-01-07T19:38:04.287Z,100889.88
2023-01-07T19:41:07.010Z,100904.47
2023-01-07T19:44:08.908Z,100899.81
2023-01-07T19:47:10.839Z,100895.38
2023-01-07T19:50:12.754Z,100900.28
2023-01-07T19:53:14.561Z,100895.69
2023-01-07T19:56:16.502Z,100904.59
2023-01-07T19:59:18.475Z,100890.47
2023-01-07T20:02:20.577Z,100885.44
2023-01-07T20:05:25.713Z,100889.25
2023-01-07T20:08:32.243Z,100883.53
2023-01-07T20:11:34.260Z,100891.53
2023-01-07T20:14:36.283Z,100883.66
2023-01-07T20:17:38.709Z,100880.59
2023-01-07T20:20:40.602Z,100878.28
2023-01-07T20:23:42.677Z,100875.44
2023-01-07T20:26:44.598Z,100865.00
2023-01-07T20:29:46.659Z,100860.97
2023-01-07T20:32:48.583Z,100855.94
2023-01-07T20:35:58.875Z,100853.50
2023-01-07T20:39:05.722Z,100854.16
2023-01-07T20:42:07.738Z,100863.38
2023-01-07T20:45:09.897Z,100846.78
2023-01-07T20:48:14.058Z,100852.97
2023-01-07T20:51:16.349Z,100853.97
2023-01-07T20:54:18.292Z,100859.44
2023-01-07T20:57:20.288Z,100852.16
2023-01-07T21:00:22.122Z,100847.13
2023-01-07T21:03:24.073Z,100855.16
2023-01-07T21:06:26.153Z,100860.59
2023-01-07T21:09:28.128Z,100854.63
2023-01-07T21:12:29.983Z,100845.56
2023-01-07T21:15:31.874Z,100849.84
2023-01-07T21:18:33.985Z,100845.00
2023-01-07T21:21:35.884Z,100842.78
2023-01-07T21:24:37.719Z,100837.06
2023-01-07T21:27:39.714Z,100843.22
2023-01-07T21:30:41.632Z,100832.19
2023-01-07T21:33:43.803Z,100834.91
2023-01-07T21:36:45.739Z,100838.88
2023-01-07T21:39:48.902Z,100849.16
2023-01-07T21:42:50.898Z,100840.53
2023-01-07T21:45:53.139Z,100830.94
2023-01-07T21:48:55.084Z,100837.09
2023-01-07T21:51:57.007Z,100834.91
2023-01-07T21:54:58.942Z,100825.97
2023-01-07T21:58:00.800Z,100818.59
2023-01-07T22:01:03.260Z,100826.34
2023-01-07T22:04:05.285Z,100833.72
2023-01-07T22:07:09.401Z,100821.16
2023-01-07T22:10:11.295Z,100827.53
2023-01-07T22:13:13.292Z,100824.31
2023-01-07T22:16:15.175Z,100822.69
2023-01-07T22:19:17.081Z,100813.41
2023-01-07T22:22:20.939Z,100820.34
2023-01-07T22:25:22.855Z,100820.69
2023-01-07T22:28:24.789Z,100823.97
2023-01-07T22:31:28.041Z,100812.63
2023-01-07T22:34:30.114Z,100817.31
2023-01-07T22:37:31.947Z,100803.25
2023-01-07T22:40:35.051Z,100813.75
2023-01-07T22:43:36.983Z,100801.59
2023-01-07T22:46:38.863Z,100794.06
2023-01-07T22:49:40.758Z,100781.97
2023-01-07T22:52:42.725Z,100777.16
2023-01-07T22:55:48.541Z,100767.03
2023-01-07T22:58:50.437Z,100766.13
2023-01-07T23:01:52.331Z,100762.94
2023-01-07T23:04:54.325Z,100746.91
2023-01-07T23:07:57.464Z,100764.19
2023-01-07T23:10:59.476Z,100763.94
2023-01-07T23:14:01.616Z,100768.84
2023-01-07T23:17:03.498Z,100764.84
2023-01-07T23:20:05.681Z,100765.34
2023-01-07T23:23:07.770Z,100751.59
2023-01-07T23:26:12.755Z,100750.47
2023-01-07T23:29:14.599Z,100751.09
2023-01-07T23:32:16.542Z,100761.81
2023-01-07T23:35:18.442Z,100740.12
2023-01-07T23:38:20.294Z,100751.25
2023-01-07T23:41:22.172Z,100749.53
2023-01-07T23:44:24.383Z,100739.50
2023-01-07T23:47:26.315Z,100743.06
2023-01-07T23:50:28.233Z,100743.03
2023-01-07T23:53:30.129Z,100740.31
2023-01-07T23:56:32.178Z,100735.41
2023-01-07T23:59:34.156Z,100740.06
